createdAt,value
2023-11-05T00:00:44.397Z,5.35
2023-11-05T00:03:13.069Z,3.20
2023-11-05T00:05:41.722Z,2.83
2023-11-05T00:08:10.855Z,4.55
2023-11-05T00:10:40.365Z,4.15
2023-11-05T00:13:09.848Z,8.55
2023-11-05T00:15:42.802Z,4.95
2023-11-05T00:18:11.527Z,6.78
2023-11-05T00:20:40.644Z,4.07
2023-11-05T00:23:09.410Z,4.40
2023-11-05T00:25:38.306Z,5.32
2023-11-05T00:28:07.262Z,4.47
2023-11-05T00:30:35.944Z,7.07
2023-11-05T00:33:06.371Z,7.30
2023-11-05T00:35:35.313Z,6.00
2023-11-05T00:38:04.423Z,6.90
2023-11-05T00:40:33.503Z,4.25
2023-11-05T00:43:02.222Z,7.50
2023-11-05T00:45:30.810Z,4.88
2023-11-05T00:47:59.632Z,3.42
2023-11-05T00:50:29.779Z,6.85
2023-11-05T00:52:58.370Z,3.78
2023-11-05T00:55:26.978Z,6.90
2023-11-05T00:57:55.645Z,7.38
2023-11-05T01:00:27.575Z,8.00
2023-11-05T01:02:56.691Z,3.30
2023-11-05T01:05:25.362Z,6.32
2023-11-05T01:07:55.707Z,5.22
2023-11-05T01:10:24.562Z,3.00
2023-11-05T01:12:53.493Z,5.10
2023-11-05T01:15:22.180Z,6.13
2023-11-05T01:17:51.196Z,6.90
2023-11-05T01:20:20.140Z,6.25
2023-11-05T01:22:49.189Z,6.60
2023-11-05T01:25:19.280Z,7.90
2023-11-05T01:27:48.794Z,8.13
2023-11-05T01:30:17.857Z,6.78
2023-11-05T01:32:47.554Z,7.30
2023-11-05T01:35:16.381Z,5.93
2023-11-05T01:37:46.286Z,3.75
2023-11-05T01:40:15.543Z,5.50
2023-11-05T01:42:45.527Z,3.70
2023-11-05T01:45:14.190Z,3.75
2023-11-05T01:47:42.909Z,3.83
2023-11-05T01:50:12.479Z,3.67
2023-11-05T01:52:41.115Z,6.38
2023-11-05T01:55:10.530Z,6.32
2023-11-05T01:57:39.260Z,3.25
2023-11-05T02:00:12.409Z,3.90
2023-11-05T02:02:42.432Z,6.55
2023-11-05T02:05:12.393Z,4.00
2023-11-05T02:07:41.837Z,7.15
2023-11-05T02:10:11.098Z,3.40
2023-11-05T02:12:39.821Z,4.82
2023-11-05T02:15:10.485Z,4.78
2023-11-05T02:17:39.389Z,5.00
2023-11-05T02:20:09.515Z,6.82
2023-11-05T02:22:39.535Z,3.72
2023-11-05T02:25:10.197Z,3.05
2023-11-05T02:27:39.147Z,5.55
2023-11-05T02:30:08.455Z,5.35
2023-11-05T02:32:37.101Z,4.50
2023-11-05T02:35:06.552Z,5.40
2023-11-05T02:37:35.673Z,4.30
2023-11-05T02:40:05.171Z,2.50
2023-11-05T02:42:35.520Z,5.15
2023-11-05T02:45:04.097Z,5.45
2023-11-05T02:47:32.808Z,2.80
2023-11-05T02:50:01.454Z,5.63
2023-11-05T02:52:30.193Z,5.20
2023-11-05T02:55:01.780Z,5.22
2023-11-05T02:57:30.893Z,3.20
2023-11-05T03:00:00.842Z,5.65
2023-11-05T03:02:29.521Z,6.22
2023-11-05T03:04:59.664Z,4.72
2023-11-05T03:07:28.785Z,3.75
2023-11-05T03:09:58.871Z,2.40
2023-11-05T03:12:27.473Z,2.75
2023-11-05T03:14:56.230Z,2.10
2023-11-05T03:17:26.284Z,4.03
2023-11-05T03:19:55.880Z,4.03
2023-11-05T03:22:24.808Z,5.32
2023-11-05T03:24:53.425Z,2.92
2023-11-05T03:27:22.132Z,3.67
2023-11-05T03:29:50.722Z,4.00
2023-11-05T03:32:19.649Z,3.25
2023-11-05T03:34:50.171Z,4.25
2023-11-05T03:37:19.187Z,3.95
2023-11-05T03:39:49.979Z,4.32
2023-11-05T03:42:20.017Z,3.50
2023-11-05T03:44:48.729Z,3.85
2023-11-05T03:47:18.038Z,2.42
2023-11-05T03:49:46.660Z,3.42
2023-11-05T03:52:17.088Z,5.60
2023-11-05T03:54:46.082Z,1.73
2023-11-05T03:57:14.967Z,2.38
2023-11-05T03:59:43.666Z,3.05
2023-11-05T04:02:12.250Z,2.55
2023-11-05T04:04:41.810Z,5.45
2023-11-05T04:07:11.269Z,4.05
2023-11-05T04:09:41.628Z,4.70
2023-11-05T04:12:10.331Z,3.60
2023-11-05T04:14:38.936Z,2.60
2023-11-05T04:17:07.768Z,2.35
2023-11-05T04:19:36.728Z,3.45
2023-11-05T04:22:05.534Z,2.20
2023-11-05T04:24:34.146Z,4.57
2023-11-05T04:27:04.150Z,2.25
2023-11-05T04:29:35.393Z,2.05
2023-11-05T04:32:05.482Z,2.47
2023-11-05T04:34:34.751Z,3.05
2023-11-05T04:37:03.637Z,3.35
2023-11-05T04:39:32.219Z,5.45
2023-11-05T04:42:00.958Z,2.60
2023-11-05T04:44:31.272Z,3.22
2023-11-05T04:47:00.580Z,2.90
2023-11-05T04:49:30.401Z,5.13
2023-11-05T04:51:59.431Z,2.80
2023-11-05T04:54:28.258Z,4.28
2023-11-05T04:56:56.883Z,3.55
2023-11-05T04:59:25.570Z,2.83
2023-11-05T05:01:56.667Z,3.33
2023-11-05T05:04:25.545Z,4.85
2023-11-05T05:06:55.055Z,3.38
2023-11-05T05:09:23.993Z,4.63
2023-11-05T05:11:52.566Z,4.07
2023-11-05T05:14:21.229Z,2.38
2023-11-05T05:16:49.796Z,2.78
2023-11-05T05:19:20.260Z,3.67
2023-11-05T05:21:49.421Z,2.30
2023-11-05T05:24:18.528Z,3.38
2023-11-05T05:26:47.231Z,2.03
2023-11-05T05:29:15.909Z,3.33
2023-11-05T05:31:44.698Z,4.38
2023-11-05T05:34:14.204Z,4.53
2023-11-05T05:36:44.798Z,4.75
2023-11-05T05:39:13.919Z,3.03
2023-11-05T05:41:42.478Z,2.20
2023-11-05T05:44:11.361Z,3.88
2023-11-05T05:46:40.231Z,6.22
2023-11-05T05:49:09.322Z,3.85
2023-11-05T05:51:37.974Z,4.70
2023-11-05T05:54:08.129Z,4.97
2023-11-05T05:56:37.013Z,5.95
2023-11-05T05:59:05.582Z,4.38
2023-11-05T06:01:35.024Z,3.75
2023-11-05T06:04:03.749Z,2.30
2023-11-05T06:06:32.459Z,2.47
2023-11-05T06:09:01.439Z,3.05
2023-11-05T06:11:31.625Z,3.55
2023-11-05T06:14:00.179Z,5.90
2023-11-05T06:16:28.860Z,4.78
2023-11-05T06:18:57.930Z,3.75
2023-11-05T06:21:26.953Z,2.97
2023-11-05T06:23:55.560Z,3.97
2023-11-05T06:26:25.469Z,4.13
2023-11-05T06:28:55.513Z,4.18
2023-11-05T06:31:24.288Z,4.22
2023-11-05T06:33:53.038Z,4.75
2023-11-05T06:36:22.214Z,3.17
2023-11-05T06:38:52.117Z,2.92
2023-11-05T06:41:21.040Z,7.15
2023-11-05T06:43:49.638Z,5.63
2023-11-05T06:46:20.082Z,5.28
2023-11-05T06:48:48.941Z,3.63
2023-11-05T06:51:17.533Z,5.80
2023-11-05T06:53:46.153Z,4.68
2023-11-05T06:56:14.754Z,3.55
2023-11-05T06:58:43.535Z,4.05
2023-11-05T07:01:12.205Z,5.25
2023-11-05T07:03:42.336Z,4.75
2023-11-05T07:06:10.975Z,4.60
2023-11-05T07:08:40.349Z,6.68
2023-11-05T07:11:09.155Z,3.45
2023-11-05T07:13:38.193Z,5.07
2023-11-05T07:16:07.325Z,6.28
2023-11-05T07:18:36.814Z,3.67
2023-11-05T07:21:07.644Z,4.68
2023-11-05T07:23:36.218Z,3.05
2023-11-05T07:26:04.830Z,3.55
2023-11-05T07:28:33.432Z,5.72
2023-11-05T07:31:02.283Z,3.15
2023-11-05T07:33:30.894Z,3.88
2023-11-05T07:36:00.349Z,4.65
2023-11-05T07:38:31.509Z,6.35
2023-11-05T07:41:00.133Z,3.83
2023-11-05T07:43:28.784Z,4.18
2023-11-05T07:45:57.967Z,6.38
2023-11-05T07:48:27.214Z,5.88
2023-11-05T07:50:55.833Z,6.85
2023-11-05T07:53:24.472Z,4.18
2023-11-05T07:55:54.464Z,5.07
2023-11-05T07:58:23.303Z,6.78
2023-11-05T08:00:52.368Z,4.13
2023-11-05T08:03:22.220Z,7.45
2023-11-05T08:05:50.877Z,7.22
2023-11-05T08:08:19.869Z,5.18
2023-11-05T08:10:48.871Z,5.90
2023-11-05T08:13:18.873Z,8.05
2023-11-05T08:15:49.136Z,5.93
2023-11-05T08:18:18.398Z,6.22
2023-11-05T08:20:47.669Z,6.63
2023-11-05T08:23:18.659Z,8.30
2023-11-05T08:25:47.426Z,4.35
2023-11-05T08:28:25.460Z,4.53
2023-11-05T08:30:57.019Z,6.15
2023-11-05T08:33:25.891Z,8.00
2023-11-05T08:35:55.574Z,7.03
2023-11-05T08:38:24.665Z,6.40
2023-11-05T08:40:53.296Z,5.10
2023-11-05T08:43:21.994Z,7.13
2023-11-05T08:45:51.353Z,7.53
2023-11-05T08:48:22.201Z,8.02
2023-11-05T08:50:51.265Z,7.78
2023-11-05T08:53:20.323Z,4.43
2023-11-05T08:55:49.096Z,9.45
2023-11-05T08:58:18.696Z,7.25
2023-11-05T09:00:47.551Z,10.45
2023-11-05T09:03:17.822Z,10.18
2023-11-05T09:05:48.497Z,8.65
2023-11-05T09:08:17.648Z,7.57
2023-11-05T09:10:46.590Z,13.73
2023-11-05T09:13:15.215Z,9.35
2023-11-05T09:15:45.082Z,7.75
2023-11-05T09:18:14.123Z,5.78
2023-11-05T09:20:43.113Z,8.25
2023-11-05T09:23:13.393Z,11.77
2023-11-05T09:25:42.028Z,8.90
2023-11-05T09:28:10.676Z,10.50
2023-11-05T09:30:39.353Z,8.48
2023-11-05T09:33:08.480Z,13.13
2023-11-05T09:35:37.588Z,9.27
2023-11-05T09:38:06.571Z,9.35
2023-11-05T09:40:36.693Z,9.90
2023-11-05T09:43:07.078Z,11.93
2023-11-05T09:45:36.931Z,12.73
2023-11-05T09:48:07.899Z,7.93
2023-11-05T09:50:37.184Z,10.65
2023-11-05T09:53:06.972Z,9.18
2023-11-05T09:55:37.236Z,6.93
2023-11-05T09:58:06.250Z,8.88
2023-11-05T10:00:35.634Z,12.35
2023-11-05T10:03:05.494Z,9.95
2023-11-05T10:05:34.918Z,12.57
2023-11-05T10:08:06.286Z,11.00
2023-11-05T10:10:35.460Z,11.90
2023-11-05T10:13:06.936Z,10.70
2023-11-05T10:15:36.495Z,7.85
2023-11-05T10:18:06.160Z,11.77
2023-11-05T10:20:34.823Z,9.02
2023-11-05T10:23:04.013Z,10.52
2023-11-05T10:25:32.861Z,11.20
2023-11-05T10:28:02.200Z,12.27
2023-11-05T10:30:33.465Z,9.30
2023-11-05T10:33:04.093Z,8.55
2023-11-05T10:35:35.512Z,8.90
2023-11-05T10:38:05.223Z,7.30
2023-11-05T10:40:34.051Z,9.77
2023-11-05T10:43:03.152Z,9.90
2023-11-05T10:45:33.843Z,10.27
2023-11-05T10:48:05.437Z,9.73
2023-11-05T10:50:35.581Z,8.00
2023-11-05T10:53:06.693Z,5.80
2023-11-05T10:55:36.011Z,8.57
2023-11-05T10:58:14.439Z,11.20
2023-11-05T11:01:00.379Z,7.90
2023-11-05T11:03:29.147Z,8.77
2023-11-05T11:06:01.208Z,7.28
2023-11-05T11:08:31.494Z,10.07
2023-11-05T11:11:10.625Z,10.15
2023-11-05T11:13:40.468Z,5.80
2023-11-05T11:16:22.503Z,7.18
2023-11-05T11:18:53.456Z,8.77
2023-11-05T11:21:22.402Z,9.68
2023-11-05T11:23:52.012Z,6.95
2023-11-05T11:26:21.415Z,9.23
2023-11-05T11:28:56.155Z,8.35
2023-11-05T11:31:26.567Z,6.68
2023-11-05T11:33:55.233Z,7.00
2023-11-05T11:36:25.091Z,7.47
2023-11-05T11:38:54.070Z,7.82
2023-11-05T11:41:22.666Z,7.05
2023-11-05T11:43:51.395Z,6.20
2023-11-05T11:46:25.075Z,6.80
2023-11-05T11:48:55.695Z,8.27
2023-11-05T11:51:24.803Z,6.80
2023-11-05T11:53:53.703Z,6.75
2023-11-05T11:56:22.655Z,7.38
2023-11-05T11:58:51.333Z,5.25
2023-11-05T12:01:20.133Z,4.95
2023-11-05T12:03:48.988Z,5.65
2023-11-05T12:06:19.123Z,8.80
2023-11-05T12:08:50.250Z,5.95
2023-11-05T12:11:20.323Z,7.05
2023-11-05T12:13:49.355Z,6.38
2023-11-05T12:16:19.074Z,7.63
2023-11-05T12:18:49.647Z,6.25
2023-11-05T12:21:19.769Z,5.55
2023-11-05T12:23:50.342Z,6.20
2023-11-05T12:26:19.153Z,6.38
2023-11-05T12:28:48.760Z,5.45
2023-11-05T12:31:17.899Z,4.97
2023-11-05T12:33:46.908Z,6.57
2023-11-05T12:36:15.729Z,5.78
2023-11-05T12:38:45.764Z,5.38
2023-11-05T12:41:14.391Z,5.50
2023-11-05T12:43:43.096Z,5.80
2023-11-05T12:46:11.727Z,5.60
2023-11-05T12:48:40.402Z,7.32
2023-11-05T12:51:09.151Z,7.15
2023-11-05T12:53:38.143Z,6.32
2023-11-05T12:56:10.560Z,7.00
2023-11-05T12:58:41.742Z,8.55
2023-11-05T13:01:11.949Z,5.80
2023-11-05T13:03:41.256Z,7.47
2023-11-05T13:06:11.392Z,5.40
2023-11-05T13:08:40.430Z,7.07
2023-11-05T13:11:10.835Z,4.53
2023-11-05T13:13:39.851Z,6.00
2023-11-05T13:16:09.004Z,6.80
2023-11-05T13:18:37.849Z,6.22
2023-11-05T13:21:06.691Z,6.65
2023-11-05T13:23:35.291Z,8.18
2023-11-05T13:26:04.238Z,6.53
2023-11-05T13:28:34.356Z,5.97
2023-11-05T13:31:03.818Z,5.30
2023-11-05T13:33:32.688Z,6.63
2023-11-05T13:36:01.629Z,5.85
2023-11-05T13:38:30.399Z,6.60
2023-11-05T13:40:59.078Z,8.40
2023-11-05T13:43:29.275Z,9.60
2023-11-05T13:46:02.226Z,7.47
2023-11-05T13:48:30.940Z,6.57
2023-11-05T13:50:59.715Z,5.30
2023-11-05T13:53:28.514Z,7.07
2023-11-05T13:55:57.621Z,9.43
2023-11-05T13:58:26.575Z,7.82
2023-11-05T14:00:58.341Z,6.32
2023-11-05T14:03:28.717Z,6.15
2023-11-05T14:05:57.449Z,4.55
2023-11-05T14:08:27.381Z,9.15
2023-11-05T14:10:56.446Z,7.13
2023-11-05T14:13:25.480Z,5.40
2023-11-05T14:15:54.219Z,6.32
2023-11-05T14:18:22.927Z,4.85
2023-11-05T14:20:53.487Z,5.82
2023-11-05T14:23:23.279Z,7.53
2023-11-05T14:25:52.572Z,5.13
2023-11-05T14:28:21.273Z,5.90
2023-11-05T14:30:49.921Z,6.38
2023-11-05T14:33:18.761Z,7.53
2023-11-05T14:35:47.388Z,5.88
2023-11-05T14:38:18.065Z,6.22
2023-11-05T14:40:49.559Z,8.10
2023-11-05T14:43:18.464Z,7.70
2023-11-05T14:45:47.566Z,7.07
2023-11-05T14:48:17.659Z,12.38
2023-11-05T14:50:46.263Z,5.57
2023-11-05T14:53:15.002Z,4.93
2023-11-05T14:55:45.406Z,7.72
2023-11-05T14:58:14.715Z,9.15
2023-11-05T15:00:43.612Z,7.15
2023-11-05T15:03:12.269Z,6.10
2023-11-05T15:05:40.982Z,6.40
2023-11-05T15:08:09.561Z,4.50
2023-11-05T15:10:38.479Z,5.70
2023-11-05T15:13:08.600Z,5.55
2023-11-05T15:15:37.191Z,7.25
2023-11-05T15:18:05.936Z,5.15
2023-11-05T15:20:34.682Z,5.47
2023-11-05T15:23:03.754Z,6.00
2023-11-05T15:25:32.526Z,6.07
2023-11-05T15:28:01.188Z,4.72
2023-11-05T15:30:31.572Z,4.78
2023-11-05T15:33:00.252Z,4.97
2023-11-05T15:35:29.720Z,6.63
2023-11-05T15:37:58.753Z,4.32
2023-11-05T15:40:28.879Z,4.63
2023-11-05T15:43:00.352Z,5.32
2023-11-05T15:45:29.079Z,5.93
2023-11-05T15:47:59.118Z,8.23
2023-11-05T15:50:27.824Z,5.63
2023-11-05T15:52:56.465Z,5.60
2023-11-05T15:55:25.719Z,4.95
2023-11-05T15:57:54.421Z,6.07
2023-11-05T16:00:23.297Z,6.45
2023-11-05T16:02:52.522Z,4.97
2023-11-05T16:05:23.702Z,6.15
2023-11-05T16:07:54.373Z,6.65
2023-11-05T16:10:27.111Z,8.07
2023-11-05T16:12:56.502Z,4.35
2023-11-05T16:15:25.105Z,5.85
2023-11-05T16:17:54.571Z,4.35
2023-11-05T16:20:25.357Z,7.32
2023-11-05T16:22:54.605Z,4.97
2023-11-05T16:25:24.084Z,3.72
2023-11-05T16:27:52.977Z,5.05
2023-11-05T16:30:21.719Z,5.63
2023-11-05T16:32:50.433Z,4.07
2023-11-05T16:35:19.448Z,4.32
2023-11-05T16:37:50.003Z,5.20
2023-11-05T16:40:19.986Z,7.10
2023-11-05T16:42:50.147Z,4.00
2023-11-05T16:45:19.524Z,4.45
2023-11-05T16:47:49.011Z,6.25
2023-11-05T16:50:18.758Z,6.53
2023-11-05T16:52:49.148Z,5.65
2023-11-05T16:55:19.310Z,5.85
2023-11-05T16:57:47.897Z,6.63
2023-11-05T17:00:17.953Z,5.35
2023-11-05T17:02:49.717Z,9.45
2023-11-05T17:05:18.432Z,6.60
2023-11-05T17:07:47.207Z,4.03
2023-11-05T17:10:19.081Z,4.50
2023-11-05T17:12:47.858Z,5.55
2023-11-05T17:15:17.910Z,6.13
2023-11-05T17:17:47.975Z,4.25
2023-11-05T17:20:18.341Z,7.32
2023-11-05T17:22:48.299Z,4.47
2023-11-05T17:25:19.395Z,6.32
2023-11-05T17:27:48.990Z,7.57
2023-11-05T17:30:18.006Z,4.65
2023-11-05T17:32:46.788Z,4.55
2023-11-05T17:35:15.875Z,3.58
2023-11-05T17:37:44.472Z,4.78
2023-11-05T17:40:14.198Z,3.97
2023-11-05T17:42:44.211Z,7.20
2023-11-05T17:45:12.835Z,7.30
2023-11-05T17:47:45.165Z,4.45
2023-11-05T17:50:15.171Z,3.92
2023-11-05T17:52:44.445Z,7.38
2023-11-05T17:55:13.298Z,3.63
2023-11-05T17:57:41.955Z,4.63
2023-11-05T18:00:12.959Z,3.45
2023-11-05T18:02:44.474Z,5.13
2023-11-05T18:05:15.296Z,3.70
2023-11-05T18:07:43.992Z,4.00
2023-11-05T18:10:13.552Z,3.40
2023-11-05T18:12:42.532Z,6.75
2023-11-05T18:15:13.361Z,6.93
2023-11-05T18:17:42.291Z,4.80
2023-11-05T18:20:13.371Z,5.03
2023-11-05T18:22:42.346Z,5.32
2023-11-05T18:25:11.130Z,5.05
2023-11-05T18:27:40.021Z,5.50
2023-11-05T18:30:09.535Z,5.35
2023-11-05T18:32:39.577Z,5.45
2023-11-05T18:35:10.639Z,4.47
2023-11-05T18:37:39.547Z,3.67
2023-11-05T18:40:09.195Z,6.47
2023-11-05T18:42:37.938Z,4.57
2023-11-05T18:45:08.497Z,5.80
2023-11-05T18:47:37.496Z,4.28
2023-11-05T18:50:08.275Z,5.03
2023-11-05T18:52:37.122Z,5.00
2023-11-05T18:55:05.851Z,7.15
2023-11-05T18:57:34.485Z,6.55
2023-11-05T19:00:04.331Z,4.25
2023-11-05T19:02:35.574Z,6.97
2023-11-05T19:05:04.845Z,8.10
2023-11-05T19:07:35.111Z,6.03
2023-11-05T19:10:07.017Z,5.05
2023-11-05T19:12:36.140Z,6.22
2023-11-05T19:15:05.566Z,6.32
2023-11-05T19:17:34.267Z,5.10
2023-11-05T19:20:03.618Z,5.80
2023-11-05T19:22:32.894Z,4.15
2023-11-05T19:25:04.527Z,6.15
2023-11-05T19:27:33.479Z,5.07
2023-11-05T19:30:05.321Z,9.90
2023-11-05T19:32:34.126Z,4.82
2023-11-05T19:35:02.906Z,4.88
2023-11-05T19:37:33.132Z,4.85
2023-11-05T19:40:03.474Z,3.50
2023-11-05T19:42:33.217Z,3.92
2023-11-05T19:45:01.940Z,6.55
2023-11-05T19:47:31.737Z,6.07
2023-11-05T19:50:00.969Z,4.28
2023-11-05T19:52:29.632Z,4.97
2023-11-05T19:54:58.259Z,3.88
2023-11-05T19:57:28.354Z,3.75
2023-11-05T19:59:57.116Z,6.78
2023-11-05T20:02:26.089Z,5.60
2023-11-05T20:04:55.479Z,4.25
2023-11-05T20:07:24.348Z,5.05
2023-11-05T20:09:52.935Z,4.55
2023-11-05T20:12:21.566Z,3.65
2023-11-05T20:14:51.551Z,6.97
2023-11-05T20:17:20.318Z,6.28
2023-11-05T20:19:49.364Z,7.38
2023-11-05T20:22:18.287Z,5.47
2023-11-05T20:24:47.004Z,8.23
2023-11-05T20:27:17.531Z,4.47
2023-11-05T20:29:46.378Z,5.72
2023-11-05T20:32:17.204Z,4.72
2023-11-05T20:34:45.929Z,4.95
2023-11-05T20:37:14.550Z,5.95
2023-11-05T20:39:43.277Z,4.55
2023-11-05T20:42:11.876Z,5.53
2023-11-05T20:44:41.860Z,4.70
2023-11-05T20:47:10.547Z,6.32
2023-11-05T20:49:40.953Z,3.90
2023-11-05T20:52:09.778Z,3.80
2023-11-05T20:54:38.367Z,3.85
2023-11-05T20:57:08.625Z,4.20
2023-11-05T20:59:37.804Z,3.35
2023-11-05T21:02:06.706Z,4.15
2023-11-05T21:04:36.684Z,5.60
2023-11-05T21:07:11.642Z,6.88
2023-11-05T21:09:41.092Z,4.50
2023-11-05T21:12:10.763Z,3.33
2023-11-05T21:14:39.626Z,5.32
2023-11-05T21:17:08.408Z,5.03
2023-11-05T21:19:37.499Z,4.13
2023-11-05T21:22:09.226Z,4.68
2023-11-05T21:24:37.821Z,4.32
2023-11-05T21:27:07.041Z,4.57
2023-11-05T21:29:36.009Z,3.58
2023-11-05T21:32:04.673Z,4.15
2023-11-05T21:34:33.301Z,7.13
2023-11-05T21:37:01.864Z,4.93
2023-11-05T21:39:31.998Z,5.97
2023-11-05T21:42:02.005Z,4.22
2023-11-05T21:44:30.604Z,4.95
2023-11-05T21:46:59.263Z,4.95
2023-11-05T21:49:27.870Z,5.43
2023-11-05T21:51:56.755Z,3.70
2023-11-05T21:54:25.981Z,4.78
2023-11-05T21:56:55.998Z,5.85
2023-11-05T21:59:24.900Z,8.13
2023-11-05T22:01:53.839Z,5.25
2023-11-05T22:04:22.938Z,5.88
2023-11-05T22:06:51.657Z,6.05
2023-11-05T22:09:20.755Z,6.10
2023-11-05T22:11:49.623Z,6.63
2023-11-05T22:14:19.860Z,5.50
2023-11-05T22:16:48.969Z,9.85
2023-11-05T22:19:18.208Z,5.43
2023-11-05T22:21:48.256Z,4.65
2023-11-05T22:24:17.566Z,5.28
2023-11-05T22:26:46.631Z,5.25
2023-11-05T22:29:15.306Z,4.65
2023-11-05T22:31:45.644Z,7.25
2023-11-05T22:34:14.257Z,3.90
2023-11-05T22:36:42.886Z,6.18
2023-11-05T22:39:11.509Z,3.60
2023-11-05T22:41:40.541Z,5.22
2023-11-05T22:44:09.373Z,5.22
2023-11-05T22:46:37.992Z,4.95
2023-11-05T22:49:14.948Z,4.60
2023-11-05T22:51:48.535Z,4.63
2023-11-05T22:54:17.220Z,6.97
2023-11-05T22:56:45.897Z,7.82
2023-11-05T22:59:14.625Z,6.93
2023-11-05T23:01:43.821Z,4.80
2023-11-05T23:04:14.028Z,4.57
2023-11-05T23:06:42.592Z,7.93
2023-11-05T23:09:11.856Z,4.97
2023-11-05T23:11:40.724Z,6.63
2023-11-05T23:14:11.234Z,5.13
2023-11-05T23:16:40.100Z,6.88
2023-11-05T23:19:09.234Z,7.95
2023-11-05T23:21:40.156Z,7.20
2023-11-05T23:24:09.762Z,7.82
2023-11-05T23:26:38.333Z,5.70
2023-11-05T23:29:07.465Z,5.13
2023-11-05T23:31:37.677Z,7.05
2023-11-05T23:34:06.334Z,5.28
2023-11-05T23:36:35.038Z,5.65
2023-11-05T23:39:05.589Z,9.02
2023-11-05T23:41:34.487Z,5.70
2023-11-05T23:44:03.080Z,6.38
2023-11-05T23:46:31.747Z,5.07
2023-11-05T23:49:00.369Z,9.55
2023-11-05T23:51:29.654Z,7.13
2023-11-05T23:53:58.335Z,6.38
2023-11-05T23:56:28.376Z,6.57
2023-11-05T23:58:56.970Z,6.68
